Time;durP1;ratioP1;P1;durP2;ratioP2;P2;SDS_P1;SDS_P2;PMS_P1;PMS_P2;Temp;Humidity;BMP_temperature;BMP_pressure;BME280_temperature;BME280_humidity;BME280_pressure;Samples;Min_cycle;Max_cycle;Signal;HPM_P1;HPM_P2
2020/12/19 00:00:40;;;;;;;;;;;;;;;0.21;100.00;96995.84;5040905;28;19958;-59
2020/12/19 00:03:07;;;;;;;;;;;;;;;0.11;100.00;96989.38;4997971;28;20040;-62
2020/12/19 00:05:34;;;;;;;;;;;;;;;0.12;100.00;96977.25;5050945;28;19932;-59
2020/12/19 00:08:01;;;;;;;;;;;;;;;0.04;100.00;96982.78;5004508;28;19958;-60
2020/12/19 00:10:28;;;;;;;;;;;;;;;0.13;100.00;96974.59;5036625;28;19956;-61
2020/12/19 00:12:59;;;;;;;;;;;;;;;0.08;100.00;96976.56;5003869;28;20447;-60
2020/12/19 00:15:27;;;;;;;;;;;;;;;0.09;100.00;96967.84;5036672;28;19961;-59
2020/12/19 00:17:54;;;;;;;;;;;;;;;-0.04;100.00;96969.31;5010789;28;20397;-61
2020/12/19 00:20:23;;;;;;;;;;;;;;;-0.05;100.00;96967.63;5036817;28;20048;-61
2020/12/19 00:22:50;;;;;;;;;;;;;;;-0.23;100.00;96958.06;5004929;28;20374;-59
2020/12/19 00:25:17;;;;;;;;;;;;;;;-0.15;100.00;96951.63;5043006;28;20038;-58
2020/12/19 00:27:44;;;;;;;;;;;;;;;-0.18;100.00;96950.94;5007840;28;19973;-62
2020/12/19 00:30:11;;;;;;;;;;;;;;;-0.03;100.00;96951.09;5044671;28;20053;-60
2020/12/19 00:32:38;;;;;;;;;;;;;;;-0.06;100.00;96946.06;5020057;28;19946;-60
2020/12/19 00:35:09;;;;;;;;;;;;;;;-0.18;100.00;96946.56;5039302;28;19990;-61
2020/12/19 00:37:42;;;;;;;;;;;;;;;-0.08;100.00;96944.44;5036962;28;19960;-57
2020/12/19 00:40:11;;;;;;;;;;;;;;;-0.18;100.00;96940.56;5019698;28;19969;-56
2020/12/19 00:42:38;;;;;;;;;;;;;;;-0.13;100.00;96936.03;5044333;28;20404;-57
2020/12/19 00:45:05;;;;;;;;;;;;;;;-0.14;100.00;96937.75;5013976;28;19938;-60
2020/12/19 00:47:33;;;;;;;;;;;;;;;-0.21;100.00;96927.72;5041795;28;20030;-59
2020/12/19 00:50:01;;;;;;;;;;;;;;;-0.14;100.00;96927.38;5001244;28;20049;-60
2020/12/19 00:52:27;;;;;;;;;;;;;;;-0.03;100.00;96927.78;5042641;28;19949;-59
2020/12/19 00:54:56;;;;;;;;;;;;;;;-0.04;100.00;96931.25;4998539;28;19976;-60
2020/12/19 00:57:24;;;;;;;;;;;;;;;-0.04;100.00;96938.19;5045657;28;20044;-60
2020/12/19 00:59:51;;;;;;;;;;;;;;;-0.22;100.00;96936.41;4997517;28;19962;-61
2020/12/19 01:02:18;;;;;;;;;;;;;;;-0.10;100.00;96931.56;5043741;28;20424;-60
2020/12/19 01:04:46;;;;;;;;;;;;;;;-0.14;100.00;96944.69;5010875;28;20318;-56
2020/12/19 01:07:12;;;;;;;;;;;;;;;-0.10;100.00;96928.97;5042494;28;19965;-59
2020/12/19 01:09:39;;;;;;;;;;;;;;;-0.03;100.00;96934.72;5009600;28;20631;-61
2020/12/19 01:12:07;;;;;;;;;;;;;;;-0.05;100.00;96926.16;5041337;28;20396;-59
2020/12/19 01:14:34;;;;;;;;;;;;;;;-0.02;100.00;96936.38;5009128;28;20082;-57
2020/12/19 01:17:03;;;;;;;;;;;;;;;-0.18;100.00;96931.03;5042395;28;19962;-58
2020/12/19 01:19:30;;;;;;;;;;;;;;;-0.13;100.00;96933.44;5009403;28;19963;-59
2020/12/19 01:21:57;;;;;;;;;;;;;;;-0.16;100.00;96938.75;5046677;28;19955;-59
2020/12/19 01:24:24;;;;;;;;;;;;;;;-0.05;100.00;96936.53;5043555;28;19966;-57
2020/12/19 01:26:51;;;;;;;;;;;;;;;0.05;100.00;96931.78;5010863;28;19942;-60
2020/12/19 01:29:21;;;;;;;;;;;;;;;-0.08;100.00;96932.31;5057463;28;19988;-61
2020/12/19 01:31:47;;;;;;;;;;;;;;;-0.11;100.00;96929.84;4997641;28;19960;-58
2020/12/19 01:34:14;;;;;;;;;;;;;;;-0.27;100.00;96927.09;5002159;22;19958;-55
2020/12/19 01:36:41;;;;;;;;;;;;;;;-0.18;100.00;96923.25;5016502;28;19951;-51
2020/12/19 01:39:09;;;;;;;;;;;;;;;-0.23;100.00;96925.22;5067129;28;20326;-57
2020/12/19 01:41:36;;;;;;;;;;;;;;;-0.23;100.00;96924.38;5030752;28;20487;-54
2020/12/19 01:44:04;;;;;;;;;;;;;;;-0.18;100.00;96917.22;5062348;28;19964;-52
2020/12/19 01:46:42;;;;;;;;;;;;;;;-0.17;100.00;96916.31;5030177;28;19996;-53
2020/12/19 01:49:09;;;;;;;;;;;;;;;-0.05;100.00;96913.19;5059630;28;21318;-51
2020/12/19 01:51:36;;;;;;;;;;;;;;;-0.14;100.00;96913.59;5022231;28;20062;-53
2020/12/19 01:54:03;;;;;;;;;;;;;;;-0.10;100.00;96913.41;5060180;28;19963;-51
2020/12/19 01:56:37;;;;;;;;;;;;;;;-0.14;100.00;96911.84;5025129;28;19957;-52
2020/12/19 01:59:04;;;;;;;;;;;;;;;-0.10;100.00;96907.38;5052176;28;20521;-55
2020/12/19 02:01:30;;;;;;;;;;;;;;;-0.13;100.00;96908.34;5029028;28;20038;-50
2020/12/19 02:03:58;;;;;;;;;;;;;;;-0.10;100.00;96905.63;5061155;28;19971;-51
2020/12/19 02:06:25;;;;;;;;;;;;;;;-0.25;100.00;96898.50;5005287;28;19967;-54
2020/12/19 02:08:53;;;;;;;;;;;;;;;-0.30;100.00;96896.13;5064766;28;20039;-57
2020/12/19 02:11:21;;;;;;;;;;;;;;;-0.33;100.00;96895.44;5058747;28;20001;-55
2020/12/19 02:13:47;;;;;;;;;;;;;;;-0.40;100.00;96901.78;5036142;28;20055;-51
2020/12/19 02:16:16;;;;;;;;;;;;;;;-0.41;100.00;96900.97;5043712;28;19957;-51
2020/12/19 02:18:43;;;;;;;;;;;;;;;-0.38;100.00;96895.66;5034594;28;20036;-53
2020/12/19 02:21:11;;;;;;;;;;;;;;;-0.43;100.00;96899.34;5060711;28;19958;-53
2020/12/19 02:23:38;;;;;;;;;;;;;;;-0.35;100.00;96885.13;5006517;28;19967;-52
2020/12/19 02:26:05;;;;;;;;;;;;;;;-0.30;100.00;96890.13;5064070;28;20410;-55
2020/12/19 02:28:32;;;;;;;;;;;;;;;-0.24;100.00;96884.66;5016453;28;19952;-56
2020/12/19 02:30:59;;;;;;;;;;;;;;;-0.16;100.00;96889.50;5057969;28;19982;-51
2020/12/19 02:33:26;;;;;;;;;;;;;;;-0.26;100.00;96895.09;5023500;28;19961;-50
2020/12/19 02:36:06;;;;;;;;;;;;;;;-0.34;100.00;96886.81;5053427;28;19973;-56
2020/12/19 02:38:33;;;;;;;;;;;;;;;-0.31;100.00;96886.69;5039743;28;20411;-53
2020/12/19 02:41:00;;;;;;;;;;;;;;;-0.35;100.00;96876.50;5060630;28;20011;-54
2020/12/19 02:43:27;;;;;;;;;;;;;;;-0.32;100.00;96887.56;5015969;28;20003;-53
2020/12/19 02:45:54;;;;;;;;;;;;;;;-0.35;100.00;96884.28;5058081;28;19951;-52
2020/12/19 02:48:21;;;;;;;;;;;;;;;-0.38;100.00;96890.47;5022380;28;19943;-51
2020/12/19 02:50:47;;;;;;;;;;;;;;;-0.37;100.00;96881.78;5063124;28;19950;-52
2020/12/19 02:53:14;;;;;;;;;;;;;;;-0.20;100.00;96875.00;5020618;28;19951;-55
2020/12/19 02:55:41;;;;;;;;;;;;;;;-0.35;100.00;96877.34;5055648;28;19954;-52
2020/12/19 02:58:08;;;;;;;;;;;;;;;-0.36;100.00;96874.84;5055050;28;19957;-54
2020/12/19 03:00:35;;;;;;;;;;;;;;;-0.18;100.00;96871.41;5014920;28;20064;-53
2020/12/19 03:03:01;;;;;;;;;;;;;;;-0.18;100.00;96874.00;5058315;28;19988;-50
2020/12/19 03:05:28;;;;;;;;;;;;;;;-0.14;100.00;96872.13;5017004;28;19964;-53
2020/12/19 03:07:55;;;;;;;;;;;;;;;-0.08;100.00;96871.84;5059670;28;19959;-55
2020/12/19 03:10:22;;;;;;;;;;;;;;;-0.02;100.00;96872.41;5023163;28;20002;-52
2020/12/19 03:12:49;;;;;;;;;;;;;;;-0.13;100.00;96874.66;5052616;28;20467;-50
2020/12/19 03:15:17;;;;;;;;;;;;;;;-0.09;100.00;96873.59;5028555;28;20403;-55
2020/12/19 03:17:44;;;;;;;;;;;;;;;-0.28;100.00;96876.16;5054095;28;20400;-54
2020/12/19 03:20:11;;;;;;;;;;;;;;;-0.31;100.00;96878.06;5016131;28;19994;-50
2020/12/19 03:22:38;;;;;;;;;;;;;;;-0.22;100.00;96871.63;5062660;28;19957;-51
2020/12/19 03:25:05;;;;;;;;;;;;;;;-0.28;100.00;96872.72;5020418;28;19958;-54
2020/12/19 03:27:37;;;;;;;;;;;;;;;-0.26;100.00;96876.94;5044038;28;19958;-50
2020/12/19 03:30:05;;;;;;;;;;;;;;;-0.16;100.00;96869.59;5027586;28;19939;-53
2020/12/19 03:32:33;;;;;;;;;;;;;;;-0.23;100.00;96870.78;5054508;28;19955;-51
2020/12/19 03:35:00;;;;;;;;;;;;;;;-0.31;100.00;96865.97;5015489;28;19970;-50
2020/12/19 03:37:26;;;;;;;;;;;;;;;-0.08;100.00;96866.66;5049040;28;19959;-57
2020/12/19 03:39:53;;;;;;;;;;;;;;;-0.18;100.00;96865.41;5031025;28;20491;-53
2020/12/19 03:42:20;;;;;;;;;;;;;;;-0.16;100.00;96868.78;5051628;28;19978;-52
2020/12/19 03:44:47;;;;;;;;;;;;;;;-0.07;100.00;96869.22;5061736;28;19966;-55
2020/12/19 03:47:14;;;;;;;;;;;;;;;0.00;100.00;96862.00;5020230;28;19952;-53
2020/12/19 03:49:42;;;;;;;;;;;;;;;-0.02;100.00;96867.22;5054339;28;19963;-52
2020/12/19 03:52:09;;;;;;;;;;;;;;;-0.05;100.00;96854.41;5023447;28;19962;-50
2020/12/19 03:54:35;;;;;;;;;;;;;;;-0.10;100.00;96860.72;5060495;28;20078;-53
2020/12/19 03:57:02;;;;;;;;;;;;;;;-0.06;100.00;96855.31;5017928;28;19952;-52
2020/12/19 03:59:29;;;;;;;;;;;;;;;-0.16;100.00;96858.41;5058871;28;20035;-51
2020/12/19 04:01:56;;;;;;;;;;;;;;;-0.19;100.00;96858.53;5025038;28;20517;-55
2020/12/19 04:04:23;;;;;;;;;;;;;;;-0.19;100.00;96861.97;5057329;28;20383;-52
2020/12/19 04:07:01;;;;;;;;;;;;;;;-0.17;100.00;96859.28;5009444;28;19965;-51
2020/12/19 04:09:27;;;;;;;;;;;;;;;-0.11;100.00;96862.44;5055184;28;20417;-52
2020/12/19 04:11:54;;;;;;;;;;;;;;;0.01;100.00;96861.06;5029849;28;19964;-50
2020/12/19 04:14:21;;;;;;;;;;;;;;;0.04;100.00;96863.53;5052385;28;19976;-54
2020/12/19 04:16:48;;;;;;;;;;;;;;;0.06;100.00;96864.28;5022115;28;20782;-49
2020/12/19 04:19:16;;;;;;;;;;;;;;;0.18;100.00;96870.69;5062382;28;19965;-51
2020/12/19 04:21:43;;;;;;;;;;;;;;;-0.23;100.00;96860.44;5027200;28;22361;-53
2020/12/19 04:24:11;;;;;;;;;;;;;;;-0.26;100.00;96855.38;5046788;28;19952;-54
2020/12/19 04:26:38;;;;;;;;;;;;;;;-0.13;100.00;96860.88;5043377;28;19947;-58
2020/12/19 04:29:05;;;;;;;;;;;;;;;-0.26;100.00;96855.38;5014245;28;19960;-52
2020/12/19 04:31:32;;;;;;;;;;;;;;;-0.11;100.00;96851.25;5056768;28;19961;-50
2020/12/19 04:33:59;;;;;;;;;;;;;;;-0.07;100.00;96845.00;5004508;28;20432;-51
2020/12/19 04:36:25;;;;;;;;;;;;;;;-0.06;100.00;96844.13;5051544;28;19959;-50
2020/12/19 04:38:52;;;;;;;;;;;;;;;-0.04;100.00;96844.88;5027529;28;19967;-52
2020/12/19 04:41:20;;;;;;;;;;;;;;;-0.10;100.00;96840.81;5058539;28;20437;-50
2020/12/19 04:43:46;;;;;;;;;;;;;;;0.00;100.00;96843.84;5031734;28;20429;-56
2020/12/19 04:46:13;;;;;;;;;;;;;;;0.14;100.00;96846.63;5058112;28;19961;-57
2020/12/19 04:48:40;;;;;;;;;;;;;;;-0.03;100.00;96842.22;5011457;28;20447;-57
2020/12/19 04:51:07;;;;;;;;;;;;;;;-0.06;100.00;96852.72;5056553;28;19942;-56
2020/12/19 04:53:34;;;;;;;;;;;;;;;-0.16;100.00;96851.47;5007386;28;20054;-57
2020/12/19 04:56:01;;;;;;;;;;;;;;;-0.20;100.00;96856.88;5046830;28;20014;-56
2020/12/19 04:58:29;;;;;;;;;;;;;;;-0.41;100.00;96858.63;5016164;28;21119;-55
2020/12/19 05:00:56;;;;;;;;;;;;;;;-0.32;100.00;96853.91;5052605;28;20455;-53
2020/12/19 05:03:23;;;;;;;;;;;;;;;-0.41;100.00;96854.31;5027937;28;19956;-50
2020/12/19 05:05:49;;;;;;;;;;;;;;;-0.28;100.00;96854.59;5056477;28;20439;-55
2020/12/19 05:08:16;;;;;;;;;;;;;;;-0.31;100.00;96859.91;5029137;28;19987;-54
2020/12/19 05:10:44;;;;;;;;;;;;;;;-0.37;100.00;96855.88;5054489;28;19997;-54
2020/12/19 05:13:11;;;;;;;;;;;;;;;-0.39;100.00;96857.66;5059888;28;20445;-51
2020/12/19 05:15:39;;;;;;;;;;;;;;;-0.45;100.00;96863.13;5010008;28;19959;-54
2020/12/19 05:18:05;;;;;;;;;;;;;;;-0.50;100.00;96870.25;5057433;28;19973;-53
2020/12/19 05:20:32;;;;;;;;;;;;;;;-0.44;100.00;96857.03;5034167;28;19959;-53
2020/12/19 05:22:59;;;;;;;;;;;;;;;-0.56;100.00;96860.16;5062872;28;20416;-54
2020/12/19 05:25:26;;;;;;;;;;;;;;;-0.43;100.00;96868.25;5020440;28;19959;-54
2020/12/19 05:27:53;;;;;;;;;;;;;;;-0.40;100.00;96870.69;5059081;28;20375;-57
2020/12/19 05:30:21;;;;;;;;;;;;;;;-0.29;100.00;96866.72;5023519;28;19948;-53
2020/12/19 05:32:49;;;;;;;;;;;;;;;-0.19;100.00;96872.34;5066032;28;20037;-55
2020/12/19 05:35:17;;;;;;;;;;;;;;;-0.19;100.00;96861.13;5026324;28;19967;-53
2020/12/19 05:38:01;;;;;;;;;;;;;;;-0.38;100.00;96861.97;5050337;28;19997;-52
2020/12/19 05:40:28;;;;;;;;;;;;;;;-0.32;100.00;96869.44;5029606;28;20026;-54
2020/12/19 05:42:55;;;;;;;;;;;;;;;-0.32;100.00;96876.38;5053517;28;19955;-52
2020/12/19 05:45:23;;;;;;;;;;;;;;;-0.47;100.00;96872.72;5001881;28;20004;-54
2020/12/19 05:47:50;;;;;;;;;;;;;;;-0.42;100.00;96868.16;5067809;28;19945;-56
2020/12/19 05:50:18;;;;;;;;;;;;;;;-0.38;100.00;96868.88;5028908;28;19964;-52
2020/12/19 05:52:45;;;;;;;;;;;;;;;-0.38;100.00;96868.88;5064817;28;19955;-51
2020/12/19 05:55:12;;;;;;;;;;;;;;;-0.43;100.00;96874.25;5026822;28;19965;-52
2020/12/19 05:57:39;;;;;;;;;;;;;;;-0.36;100.00;96874.84;5056145;28;20024;-52
2020/12/19 06:00:07;;;;;;;;;;;;;;;-0.38;100.00;96874.06;5060018;28;19939;-56
2020/12/19 06:02:35;;;;;;;;;;;;;;;-0.66;100.00;96871.81;5025139;28;19971;-52
2020/12/19 06:05:04;;;;;;;;;;;;;;;-0.54;100.00;96879.91;5058589;28;19954;-51
2020/12/19 06:07:34;;;;;;;;;;;;;;;-0.63;100.00;96877.72;5025234;28;19954;-50
2020/12/19 06:10:02;;;;;;;;;;;;;;;-0.67;100.00;96883.09;5051833;28;20385;-50
2020/12/19 06:12:34;;;;;;;;;;;;;;;-0.66;100.00;96884.78;5024389;28;19965;-53
2020/12/19 06:15:01;;;;;;;;;;;;;;;-0.61;100.00;96883.69;5063426;28;20380;-53
2020/12/19 06:17:31;;;;;;;;;;;;;;;-0.51;100.00;96887.56;5019076;28;19961;-55
2020/12/19 06:19:57;;;;;;;;;;;;;;;-0.55;100.00;96885.16;5054904;28;19956;-56
2020/12/19 06:22:28;;;;;;;;;;;;;;;-0.43;100.00;96889.81;5020440;28;21582;-51
2020/12/19 06:24:57;;;;;;;;;;;;;;;-0.41;100.00;96889.72;5054149;28;19960;-50
2020/12/19 06:27:40;;;;;;;;;;;;;;;-0.44;100.00;96887.28;5022062;28;20348;-52
2020/12/19 06:30:07;;;;;;;;;;;;;;;-0.43;100.00;96892.41;5056670;28;20000;-56
2020/12/19 06:32:34;;;;;;;;;;;;;;;-0.24;100.00;96889.84;5027735;28;20549;-55
2020/12/19 06:35:01;;;;;;;;;;;;;;;-0.32;100.00;96892.75;5053584;28;20428;-54
2020/12/19 06:37:30;;;;;;;;;;;;;;;-0.35;100.00;96892.91;5003739;28;20029;-54
2020/12/19 06:40:07;;;;;;;;;;;;;;;-0.25;100.00;96888.16;5043947;28;20060;-52
2020/12/19 06:42:34;;;;;;;;;;;;;;;-0.43;100.00;96884.63;5011357;28;19964;-51
2020/12/19 06:45:16;;;;;;;;;;;;;;;-0.38;100.00;96885.28;5065940;28;20008;-50
2020/12/19 06:47:42;;;;;;;;;;;;;;;-0.38;100.00;96884.41;5027590;28;19959;-55
2020/12/19 06:50:09;;;;;;;;;;;;;;;-0.36;100.00;96890.38;5052388;28;19995;-54
2020/12/19 06:52:37;;;;;;;;;;;;;;;-0.36;100.00;96887.78;5025321;28;20055;-55
2020/12/19 06:55:17;;;;;;;;;;;;;;;-0.43;100.00;96887.22;5051897;28;20390;-55
2020/12/19 06:57:49;;;;;;;;;;;;;;;-0.47;100.00;96890.84;5018895;28;23461;-53
2020/12/19 07:00:17;;;;;;;;;;;;;;;-0.56;100.00;96896.41;5054826;28;19955;-57
2020/12/19 07:02:48;;;;;;;;;;;;;;;-0.49;100.00;96890.91;5036121;28;19949;-60
2020/12/19 07:05:18;;;;;;;;;;;;;;;-0.43;100.00;96895.00;5046316;28;19987;-56
2020/12/19 07:07:46;;;;;;;;;;;;;;;-0.50;100.00;96890.97;5051603;28;20382;-55
2020/12/19 07:10:13;;;;;;;;;;;;;;;-0.50;100.00;96889.22;5003705;28;19952;-55
2020/12/19 07:12:40;;;;;;;;;;;;;;;-0.48;100.00;96894.38;5058939;28;20491;-54
2020/12/19 07:15:07;;;;;;;;;;;;;;;-0.52;100.00;96888.47;5019274;28;19985;-57
2020/12/19 07:17:43;;;;;;;;;;;;;;;-0.44;100.00;96890.72;5060119;28;19934;-55
2020/12/19 07:20:11;;;;;;;;;;;;;;;-0.16;100.00;96886.91;5018061;28;19997;-55
2020/12/19 07:22:38;;;;;;;;;;;;;;;-0.23;100.00;96899.31;5059480;28;19999;-51
2020/12/19 07:25:05;;;;;;;;;;;;;;;-0.26;100.00;96902.88;5031443;28;20441;-53
2020/12/19 07:27:32;;;;;;;;;;;;;;;-0.52;100.00;96911.78;5057332;28;20037;-54
2020/12/19 07:29:59;;;;;;;;;;;;;;;-0.42;100.00;96904.44;5018703;28;19943;-50
2020/12/19 07:32:26;;;;;;;;;;;;;;;-0.29;100.00;96912.53;5051104;28;19997;-55
2020/12/19 07:34:54;;;;;;;;;;;;;;;-0.42;100.00;96922.56;5013038;28;20431;-52
2020/12/19 07:37:21;;;;;;;;;;;;;;;-0.36;100.00;96922.31;5051932;28;20368;-53
2020/12/19 07:39:48;;;;;;;;;;;;;;;-0.41;100.00;96915.63;5025747;28;20043;-52
2020/12/19 07:42:16;;;;;;;;;;;;;;;-0.49;100.00;96916.81;5053690;28;19985;-54
2020/12/19 07:44:44;;;;;;;;;;;;;;;-0.35;100.00;96913.63;5029133;28;19967;-53
2020/12/19 07:47:11;;;;;;;;;;;;;;;-0.31;100.00;96907.41;5050140;28;19955;-53
2020/12/19 07:49:44;;;;;;;;;;;;;;;-0.22;100.00;96911.34;5016858;28;20034;-54
2020/12/19 07:52:12;;;;;;;;;;;;;;;-0.38;100.00;96908.59;5052550;28;20373;-55
2020/12/19 07:54:40;;;;;;;;;;;;;;;-0.42;100.00;96921.72;5028665;28;19973;-59
2020/12/19 07:57:10;;;;;;;;;;;;;;;-0.27;100.00;96921.94;5054593;28;20506;-53
2020/12/19 07:59:39;;;;;;;;;;;;;;;-0.18;100.00;96930.19;5044623;28;20038;-51
2020/12/19 08:02:06;;;;;;;;;;;;;;;-0.13;100.00;96921.31;5027326;28;20341;-57
2020/12/19 08:04:33;;;;;;;;;;;;;;;-0.07;100.00;96922.78;5057875;28;20017;-52
2020/12/19 08:07:00;;;;;;;;;;;;;;;-0.31;100.00;96928.16;5013391;28;20053;-51
2020/12/19 08:09:31;;;;;;;;;;;;;;;-0.27;100.00;96923.69;5060293;28;19953;-52
2020/12/19 08:11:59;;;;;;;;;;;;;;;-0.15;100.00;96919.69;5023885;28;20043;-49
2020/12/19 08:14:26;;;;;;;;;;;;;;;0.19;100.00;96921.63;5053514;28;19971;-49
2020/12/19 08:16:54;;;;;;;;;;;;;;;-0.03;100.00;96919.16;5025676;28;19996;-53
2020/12/19 08:19:24;;;;;;;;;;;;;;;0.00;100.00;96921.63;5063053;28;20036;-53
2020/12/19 08:21:58;;;;;;;;;;;;;;;-0.01;100.00;96912.13;5022775;28;19968;-49
2020/12/19 08:24:25;;;;;;;;;;;;;;;0.00;100.00;96916.44;5037587;28;19972;-50
2020/12/19 08:26:52;;;;;;;;;;;;;;;0.03;100.00;96920.63;5014004;28;20025;-49
2020/12/19 08:29:19;;;;;;;;;;;;;;;0.03;100.00;96926.63;5058673;28;19954;-50
2020/12/19 08:31:46;;;;;;;;;;;;;;;-0.14;100.00;96922.19;5015753;28;19973;-53
2020/12/19 08:34:14;;;;;;;;;;;;;;;-0.01;100.00;96927.69;5054684;28;20345;-56
2020/12/19 08:36:45;;;;;;;;;;;;;;;-0.02;100.00;96924.25;5017399;28;22854;-54
2020/12/19 08:39:13;;;;;;;;;;;;;;;0.12;100.00;96925.41;5055553;28;19970;-57
2020/12/19 08:41:40;;;;;;;;;;;;;;;0.19;100.00;96927.63;5025611;28;19963;-53
2020/12/19 08:44:06;;;;;;;;;;;;;;;0.18;100.00;96933.75;5060763;28;19983;-54
2020/12/19 08:46:33;;;;;;;;;;;;;;;0.46;100.00;96927.28;5058855;28;19952;-53
2020/12/19 08:49:02;;;;;;;;;;;;;;;0.44;100.00;96929.94;5020535;28;19986;-52
2020/12/19 08:51:30;;;;;;;;;;;;;;;0.26;100.00;96935.16;5051337;28;20007;-51
2020/12/19 08:54:09;;;;;;;;;;;;;;;0.50;100.00;96939.22;5032690;28;20013;-53
2020/12/19 08:56:36;;;;;;;;;;;;;;;0.64;100.00;96930.78;5059288;28;20042;-48
2020/12/19 08:59:03;;;;;;;;;;;;;;;0.48;100.00;96938.44;5029282;28;20041;-55
2020/12/19 09:01:30;;;;;;;;;;;;;;;0.49;100.00;96937.53;5062638;28;19967;-54
2020/12/19 09:04:06;;;;;;;;;;;;;;;0.39;100.00;96944.06;5013158;28;20461;-50
2020/12/19 09:06:34;;;;;;;;;;;;;;;0.11;100.00;96940.13;5066696;28;20365;-56
2020/12/19 09:09:01;;;;;;;;;;;;;;;0.16;100.00;96948.53;5031107;28;20326;-51
2020/12/19 09:11:28;;;;;;;;;;;;;;;0.18;100.00;96940.69;5061760;28;19983;-54
2020/12/19 09:14:03;;;;;;;;;;;;;;;0.31;100.00;96943.56;5029359;28;19966;-52
2020/12/19 09:16:29;;;;;;;;;;;;;;;0.25;100.00;96933.47;5046937;28;20074;-52
2020/12/19 09:18:56;;;;;;;;;;;;;;;0.58;100.00;96939.69;5017619;28;19959;-52
2020/12/19 09:21:23;;;;;;;;;;;;;;;0.46;100.00;96938.50;5058021;28;20000;-52
2020/12/19 09:23:50;;;;;;;;;;;;;;;0.61;100.00;96944.72;5032422;28;20010;-54
2020/12/19 09:26:17;;;;;;;;;;;;;;;0.56;100.00;96935.50;5058132;28;19961;-52
2020/12/19 09:28:47;;;;;;;;;;;;;;;0.74;100.00;96944.16;5020962;28;19962;-55
2020/12/19 09:31:13;;;;;;;;;;;;;;;0.52;100.00;96947.78;5061325;28;20043;-57
2020/12/19 09:33:40;;;;;;;;;;;;;;;0.63;100.00;96952.47;5019373;28;19993;-56
2020/12/19 09:36:07;;;;;;;;;;;;;;;0.51;100.00;96947.81;5057102;28;20035;-59
2020/12/19 09:38:33;;;;;;;;;;;;;;;0.38;100.00;96955.31;5056912;28;19951;-59
2020/12/19 09:41:01;;;;;;;;;;;;;;;0.51;100.00;96948.66;5030496;28;19958;-53
2020/12/19 09:43:28;;;;;;;;;;;;;;;0.38;100.00;96944.94;5052257;28;19959;-57
2020/12/19 09:45:56;;;;;;;;;;;;;;;0.27;100.00;96945.44;5015739;28;19961;-53
2020/12/19 09:48:22;;;;;;;;;;;;;;;0.41;100.00;96943.09;5058899;28;20015;-51
2020/12/19 09:50:49;;;;;;;;;;;;;;;0.43;100.00;96951.63;5004161;28;19948;-52
2020/12/19 09:53:17;;;;;;;;;;;;;;;0.45;100.00;96938.59;5052254;28;20535;-53
2020/12/19 09:55:44;;;;;;;;;;;;;;;0.54;100.00;96938.16;5016464;28;20077;-55
2020/12/19 09:58:14;;;;;;;;;;;;;;;0.27;100.00;96935.06;5050383;28;20387;-54
2020/12/19 10:00:41;;;;;;;;;;;;;;;0.36;100.00;96939.00;5018067;28;20047;-49
2020/12/19 10:03:09;;;;;;;;;;;;;;;0.16;100.00;96932.13;5058826;28;19954;-54
2020/12/19 10:05:37;;;;;;;;;;;;;;;0.65;100.00;96928.13;5025226;28;20002;-53
2020/12/19 10:08:04;;;;;;;;;;;;;;;0.70;100.00;96928.75;5056197;28;19957;-56
2020/12/19 10:10:43;;;;;;;;;;;;;;;0.52;100.00;96923.56;5020280;28;19967;-50
2020/12/19 10:13:10;;;;;;;;;;;;;;;0.68;100.00;96919.34;5055290;28;19955;-53
2020/12/19 10:15:37;;;;;;;;;;;;;;;0.76;100.00;96919.81;5030238;28;20049;-50
2020/12/19 10:18:04;;;;;;;;;;;;;;;0.91;100.00;96916.47;5058700;28;19938;-55
2020/12/19 10:20:31;;;;;;;;;;;;;;;1.02;100.00;96918.56;5025947;28;20487;-53
2020/12/19 10:23:15;;;;;;;;;;;;;;;0.84;100.00;96917.69;5053936;28;19955;-52
2020/12/19 10:25:42;;;;;;;;;;;;;;;0.57;100.00;96922.44;5019549;28;19992;-53
2020/12/19 10:28:08;;;;;;;;;;;;;;;0.54;100.00;96912.19;5058802;28;19956;-55
2020/12/19 10:30:38;;;;;;;;;;;;;;;1.02;100.00;96917.72;5060558;28;19957;-50
2020/12/19 10:33:04;;;;;;;;;;;;;;;0.53;100.00;96918.31;5023122;28;19941;-52
2020/12/19 10:35:31;;;;;;;;;;;;;;;0.74;100.00;96923.41;5053767;28;19997;-53
2020/12/19 10:37:58;;;;;;;;;;;;;;;1.09;100.00;96916.50;5017021;28;19954;-51
2020/12/19 10:40:24;;;;;;;;;;;;;;;0.97;100.00;96912.75;5052896;28;19967;-51
2020/12/19 10:42:51;;;;;;;;;;;;;;;0.99;100.00;96917.88;5031525;28;20317;-56
2020/12/19 10:45:18;;;;;;;;;;;;;;;0.71;100.00;96920.03;5059671;28;19964;-56
2020/12/19 10:47:45;;;;;;;;;;;;;;;0.68;100.00;96914.16;5022427;28;19979;-52
2020/12/19 10:50:17;;;;;;;;;;;;;;;0.63;100.00;96916.97;5057557;28;20012;-52
2020/12/19 10:52:43;;;;;;;;;;;;;;;1.04;100.00;96910.72;5019443;28;19960;-55
2020/12/19 10:55:11;;;;;;;;;;;;;;;1.18;100.00;96905.66;5057768;28;19960;-56
2020/12/19 10:57:37;;;;;;;;;;;;;;;1.50;100.00;96909.25;5027573;28;19972;-56
2020/12/19 11:00:04;;;;;;;;;;;;;;;1.43;100.00;96905.28;5053868;28;20438;-53
2020/12/19 11:02:31;;;;;;;;;;;;;;;1.45;100.00;96916.44;5027766;28;19962;-52
2020/12/19 11:04:59;;;;;;;;;;;;;;;1.37;100.00;96903.81;5057265;28;19958;-55
2020/12/19 11:07:25;;;;;;;;;;;;;;;1.39;100.00;96907.19;5019529;28;23427;-52
2020/12/19 11:09:52;;;;;;;;;;;;;;;1.60;100.00;96915.66;5057976;28;19989;-56
2020/12/19 11:12:19;;;;;;;;;;;;;;;1.87;100.00;96902.16;5032743;28;19945;-56
2020/12/19 11:14:48;;;;;;;;;;;;;;;1.35;100.00;96897.88;5057780;28;20345;-55
2020/12/19 11:17:14;;;;;;;;;;;;;;;1.58;100.00;96891.50;5055133;28;20002;-55
2020/12/19 11:19:41;;;;;;;;;;;;;;;1.25;100.00;96894.06;5025040;28;19991;-55
2020/12/19 11:22:09;;;;;;;;;;;;;;;1.23;100.00;96890.69;5059247;28;20006;-52
2020/12/19 11:24:35;;;;;;;;;;;;;;;1.23;100.00;96889.84;5022947;28;19984;-53
2020/12/19 11:27:02;;;;;;;;;;;;;;;1.50;100.00;96885.00;5058610;28;19952;-53
2020/12/19 11:29:29;;;;;;;;;;;;;;;1.37;100.00;96885.63;5016413;28;20057;-53
2020/12/19 11:31:55;;;;;;;;;;;;;;;1.23;100.00;96889.84;5063583;28;19951;-53
2020/12/19 11:34:22;;;;;;;;;;;;;;;1.21;100.00;96882.13;5016604;28;20039;-57
2020/12/19 11:36:49;;;;;;;;;;;;;;;1.09;100.00;96886.16;5053827;28;19963;-53
2020/12/19 11:39:18;;;;;;;;;;;;;;;1.31;100.00;96877.31;5028649;28;19953;-56
2020/12/19 11:41:44;;;;;;;;;;;;;;;1.26;100.00;96879.31;5060772;28;20395;-53
2020/12/19 11:44:12;;;;;;;;;;;;;;;0.87;100.00;96882.97;5035780;28;20375;-53
2020/12/19 11:46:39;;;;;;;;;;;;;;;0.54;100.00;96886.25;5055432;28;20020;-55
2020/12/19 11:49:06;;;;;;;;;;;;;;;0.76;100.00;96878.28;5020523;28;19971;-54
2020/12/19 11:51:34;;;;;;;;;;;;;;;1.03;100.00;96870.06;5049131;28;19964;-58
2020/12/19 11:54:01;;;;;;;;;;;;;;;1.38;100.00;96869.13;5024327;28;20072;-59
2020/12/19 11:56:29;;;;;;;;;;;;;;;1.43;100.00;96874.09;5055165;28;19965;-56
2020/12/19 11:58:57;;;;;;;;;;;;;;;1.14;100.00;96876.41;5047356;28;20007;-52
2020/12/19 12:01:25;;;;;;;;;;;;;;;1.47;100.00;96864.38;5015200;28;20619;-54
2020/12/19 12:03:52;;;;;;;;;;;;;;;1.44;100.00;96862.75;5053416;28;19965;-51
2020/12/19 12:06:25;;;;;;;;;;;;;;;1.19;100.00;96868.38;5022083;28;19982;-53
2020/12/19 12:08:52;;;;;;;;;;;;;;;1.33;100.00;96862.47;5059232;28;19979;-56
2020/12/19 12:11:24;;;;;;;;;;;;;;;1.71;100.00;96862.25;5014479;28;20022;-53
2020/12/19 12:13:51;;;;;;;;;;;;;;;1.71;100.00;96862.25;5051801;28;19963;-54
2020/12/19 12:16:18;;;;;;;;;;;;;;;1.36;100.00;96862.31;5009447;28;20131;-56
2020/12/19 12:18:45;;;;;;;;;;;;;;;1.49;100.00;96859.94;5051983;28;19991;-56
2020/12/19 12:21:13;;;;;;;;;;;;;;;1.45;100.00;96858.44;5017177;28;20331;-57
2020/12/19 12:23:40;;;;;;;;;;;;;;;1.39;100.00;96856.97;5051167;28;19948;-52
2020/12/19 12:26:06;;;;;;;;;;;;;;;1.52;100.00;96858.03;5025028;28;19989;-53
2020/12/19 12:28:33;;;;;;;;;;;;;;;1.48;100.00;96860.84;5063717;28;19980;-54
2020/12/19 12:31:01;;;;;;;;;;;;;;;1.27;100.00;96867.97;5025844;28;20064;-56
2020/12/19 12:33:27;;;;;;;;;;;;;;;1.37;100.00;96864.84;5058095;28;20003;-54
2020/12/19 12:35:54;;;;;;;;;;;;;;;1.36;100.00;96859.72;5012519;28;20003;-56
2020/12/19 12:38:21;;;;;;;;;;;;;;;1.32;100.00;96860.81;5061188;28;19954;-52
2020/12/19 12:40:47;;;;;;;;;;;;;;;1.24;100.00;96863.81;5016514;28;20006;-53
2020/12/19 12:43:14;;;;;;;;;;;;;;;1.47;100.00;96861.78;5060620;28;19968;-51